sensor_id;sensor_type;location;lat;lon;timestamp;temperature;humidity
26655;DHT22;14278;50.784;4.630;2023-06-14T00:00:21;20.10;99.90
26655;DHT22;14278;50.784;4.630;2023-06-14T00:02:47;19.70;99.90
26655;DHT22;14278;50.784;4.630;2023-06-14T00:05:13;19.60;99.90
26655;DHT22;14278;50.784;4.630;2023-06-14T00:07:41;19.60;99.90
26655;DHT22;14278;50.784;4.630;2023-06-14T00:10:09;19.60;99.90
26655;DHT22;14278;50.784;4.630;2023-06-14T00:12:35;19.50;99.90
26655;DHT22;14278;50.784;4.630;2023-06-14T00:15:02;19.30;99.90
26655;DHT22;14278;50.784;4.630;2023-06-14T00:17:28;19.30;99.90
26655;DHT22;14278;50.784;4.630;2023-06-14T00:19:57;19.30;99.90
26655;DHT22;14278;50.784;4.630;2023-06-14T00:22:24;19.60;99.90
26655;DHT22;14278;50.784;4.630;2023-06-14T00:24:57;19.80;99.90
26655;DHT22;14278;50.784;4.630;2023-06-14T00:27:23;19.40;99.90
26655;DHT22;14278;50.784;4.630;2023-06-14T00:29:48;19.40;99.90
26655;DHT22;14278;50.784;4.630;2023-06-14T00:32:15;19.20;99.90
26655;DHT22;14278;50.784;4.630;2023-06-14T00:34:41;19.30;99.90
26655;DHT22;14278;50.784;4.630;2023-06-14T00:37:07;19.20;99.90
26655;DHT22;14278;50.784;4.630;2023-06-14T00:39:33;19.10;99.90
26655;DHT22;14278;50.784;4.630;2023-06-14T00:42:01;18.90;99.90
26655;DHT22;14278;50.784;4.630;2023-06-14T00:44:27;18.80;99.90
26655;DHT22;14278;50.784;4.630;2023-06-14T00:46:53;18.90;99.90
26655;DHT22;14278;50.784;4.630;2023-06-14T00:49:19;19.00;99.90
26655;DHT22;14278;50.784;4.630;2023-06-14T00:51:45;19.10;99.90
26655;DHT22;14278;50.784;4.630;2023-06-14T00:54:11;19.00;99.90
26655;DHT22;14278;50.784;4.630;2023-06-14T00:56:37;19.00;99.90
26655;DHT22;14278;50.784;4.630;2023-06-14T00:59:04;18.90;99.90
26655;DHT22;14278;50.784;4.630;2023-06-14T01:01:31;18.70;99.90
26655;DHT22;14278;50.784;4.630;2023-06-14T01:04:00;18.80;99.90
26655;DHT22;14278;50.784;4.630;2023-06-14T01:06:54;18.70;99.90
26655;DHT22;14278;50.784;4.630;2023-06-14T01:09:57;18.50;99.90
26655;DHT22;14278;50.784;4.630;2023-06-14T01:12:51;18.50;99.90
26655;DHT22;14278;50.784;4.630;2023-06-14T01:15:19;18.70;99.90
26655;DHT22;14278;50.784;4.630;2023-06-14T01:17:49;18.40;99.90
26655;DHT22;14278;50.784;4.630;2023-06-14T01:20:19;18.40;99.90
26655;DHT22;14278;50.784;4.630;2023-06-14T01:22:54;18.40;99.90
26655;DHT22;14278;50.784;4.630;2023-06-14T01:25:22;18.40;99.90
26655;DHT22;14278;50.784;4.630;2023-06-14T01:27:49;18.70;99.90
26655;DHT22;14278;50.784;4.630;2023-06-14T01:30:17;18.80;99.90
26655;DHT22;14278;50.784;4.630;2023-06-14T01:32:44;18.80;99.90
26655;DHT22;14278;50.784;4.630;2023-06-14T01:35:11;18.60;99.90
26655;DHT22;14278;50.784;4.630;2023-06-14T01:37:40;18.50;99.90
26655;DHT22;14278;50.784;4.630;2023-06-14T01:40:06;18.50;99.90
26655;DHT22;14278;50.784;4.630;2023-06-14T01:42:36;18.50;99.90
26655;DHT22;14278;50.784;4.630;2023-06-14T01:45:04;18.30;99.90
26655;DHT22;14278;50.784;4.630;2023-06-14T01:47:34;18.20;99.90
26655;DHT22;14278;50.784;4.630;2023-06-14T01:50:02;18.40;99.90
26655;DHT22;14278;50.784;4.630;2023-06-14T01:52:28;18.30;99.90
26655;DHT22;14278;50.784;4.630;2023-06-14T01:54:54;18.30;99.90
26655;DHT22;14278;50.784;4.630;2023-06-14T01:57:19;18.40;99.90
26655;DHT22;14278;50.784;4.630;2023-06-14T01:59:46;18.30;99.90
26655;DHT22;14278;50.784;4.630;2023-06-14T02:02:14;18.30;99.90
26655;DHT22;14278;50.784;4.630;2023-06-14T02:04:41;18.30;99.90
26655;DHT22;14278;50.784;4.630;2023-06-14T02:07:07;18.40;99.90
26655;DHT22;14278;50.784;4.630;2023-06-14T02:09:36;18.20;99.90
26655;DHT22;14278;50.784;4.630;2023-06-14T02:12:02;18.20;99.90
26655;DHT22;14278;50.784;4.630;2023-06-14T02:14:28;18.10;99.90
26655;DHT22;14278;50.784;4.630;2023-06-14T02:16:54;18.10;99.90
26655;DHT22;14278;50.784;4.630;2023-06-14T02:19:21;17.90;99.90
26655;DHT22;14278;50.784;4.630;2023-06-14T02:21:47;18.00;99.90
26655;DHT22;14278;50.784;4.630;2023-06-14T02:24:13;18.10;99.90
26655;DHT22;14278;50.784;4.630;2023-06-14T02:26:40;18.10;99.90
26655;DHT22;14278;50.784;4.630;2023-06-14T02:29:09;17.80;99.90
26655;DHT22;14278;50.784;4.630;2023-06-14T02:31:36;17.60;99.90
26655;DHT22;14278;50.784;4.630;2023-06-14T02:34:02;17.70;99.90
26655;DHT22;14278;50.784;4.630;2023-06-14T02:36:28;17.70;99.90
26655;DHT22;14278;50.784;4.630;2023-06-14T02:38:58;17.40;99.90
26655;DHT22;14278;50.784;4.630;2023-06-14T02:41:24;17.20;99.90
26655;DHT22;14278;50.784;4.630;2023-06-14T02:43:51;17.30;99.90
26655;DHT22;14278;50.784;4.630;2023-06-14T02:46:17;17.30;99.90
26655;DHT22;14278;50.784;4.630;2023-06-14T02:48:43;17.40;99.90
26655;DHT22;14278;50.784;4.630;2023-06-14T02:51:11;17.40;99.90
26655;DHT22;14278;50.784;4.630;2023-06-14T02:53:38;17.40;99.90
26655;DHT22;14278;50.784;4.630;2023-06-14T02:56:04;17.30;99.90
26655;DHT22;14278;50.784;4.630;2023-06-14T02:58:30;17.30;99.90
26655;DHT22;14278;50.784;4.630;2023-06-14T03:00:56;16.90;99.90
26655;DHT22;14278;50.784;4.630;2023-06-14T03:03:22;16.90;99.90
26655;DHT22;14278;50.784;4.630;2023-06-14T03:05:50;17.10;99.90
26655;DHT22;14278;50.784;4.630;2023-06-14T03:08:16;16.90;99.90
26655;DHT22;14278;50.784;4.630;2023-06-14T03:10:46;16.80;99.90
26655;DHT22;14278;50.784;4.630;2023-06-14T03:13:13;16.70;99.90
26655;DHT22;14278;50.784;4.630;2023-06-14T03:15:39;16.90;99.90
26655;DHT22;14278;50.784;4.630;2023-06-14T03:18:08;17.20;99.90
26655;DHT22;14278;50.784;4.630;2023-06-14T03:20:35;17.40;99.90
26655;DHT22;14278;50.784;4.630;2023-06-14T03:23:01;17.60;99.90
26655;DHT22;14278;50.784;4.630;2023-06-14T03:25:28;17.60;99.90
26655;DHT22;14278;50.784;4.630;2023-06-14T03:27:58;17.50;99.90
26655;DHT22;14278;50.784;4.630;2023-06-14T03:30:24;17.40;99.90
26655;DHT22;14278;50.784;4.630;2023-06-14T03:32:50;17.50;99.90
26655;DHT22;14278;50.784;4.630;2023-06-14T03:35:21;17.50;99.90
26655;DHT22;14278;50.784;4.630;2023-06-14T03:37:47;17.40;99.90
26655;DHT22;14278;50.784;4.630;2023-06-14T03:40:16;17.70;99.90
26655;DHT22;14278;50.784;4.630;2023-06-14T03:42:42;17.70;99.90
26655;DHT22;14278;50.784;4.630;2023-06-14T03:45:08;17.60;99.90
26655;DHT22;14278;50.784;4.630;2023-06-14T03:47:34;17.50;99.90
26655;DHT22;14278;50.784;4.630;2023-06-14T03:50:00;17.60;99.90
26655;DHT22;14278;50.784;4.630;2023-06-14T03:52:28;17.50;99.90
26655;DHT22;14278;50.784;4.630;2023-06-14T03:54:54;17.40;99.90
26655;DHT22;14278;50.784;4.630;2023-06-14T03:57:20;17.40;99.90
26655;DHT22;14278;50.784;4.630;2023-06-14T03:59:47;17.30;99.90
26655;DHT22;14278;50.784;4.630;2023-06-14T04:02:13;17.20;99.90
26655;DHT22;14278;50.784;4.630;2023-06-14T04:04:44;17.20;99.90
26655;DHT22;14278;50.784;4.630;2023-06-14T04:07:16;16.90;99.90
26655;DHT22;14278;50.784;4.630;2023-06-14T04:09:45;17.10;99.90
26655;DHT22;14278;50.784;4.630;2023-06-14T04:12:11;17.30;99.90
26655;DHT22;14278;50.784;4.630;2023-06-14T04:14:39;17.30;99.90
26655;DHT22;14278;50.784;4.630;2023-06-14T04:17:06;17.20;99.90
26655;DHT22;14278;50.784;4.630;2023-06-14T04:19:32;17.40;99.90
26655;DHT22;14278;50.784;4.630;2023-06-14T04:21:58;17.60;99.90
26655;DHT22;14278;50.784;4.630;2023-06-14T04:24:26;17.90;99.90
26655;DHT22;14278;50.784;4.630;2023-06-14T04:26:58;17.90;99.90
26655;DHT22;14278;50.784;4.630;2023-06-14T04:29:25;17.80;99.90
26655;DHT22;14278;50.784;4.630;2023-06-14T04:31:54;18.20;99.90
26655;DHT22;14278;50.784;4.630;2023-06-14T04:34:20;18.40;99.90
26655;DHT22;14278;50.784;4.630;2023-06-14T04:36:47;18.80;99.90
26655;DHT22;14278;50.784;4.630;2023-06-14T04:39:22;19.50;99.90
26655;DHT22;14278;50.784;4.630;2023-06-14T04:42:08;20.70;99.90
26655;DHT22;14278;50.784;4.630;2023-06-14T04:44:37;22.30;99.90
26655;DHT22;14278;50.784;4.630;2023-06-14T04:47:05;23.70;99.90
26655;DHT22;14278;50.784;4.630;2023-06-14T04:49:32;24.50;99.90
26655;DHT22;14278;50.784;4.630;2023-06-14T04:51:59;24.80;99.90
26655;DHT22;14278;50.784;4.630;2023-06-14T04:54:27;24.30;99.90
26655;DHT22;14278;50.784;4.630;2023-06-14T04:56:53;24.10;99.90
26655;DHT22;14278;50.784;4.630;2023-06-14T04:59:21;24.40;99.90
26655;DHT22;14278;50.784;4.630;2023-06-14T05:01:49;25.40;99.90
26655;DHT22;14278;50.784;4.630;2023-06-14T05:04:18;25.80;99.90
26655;DHT22;14278;50.784;4.630;2023-06-14T05:06:45;25.40;99.90
26655;DHT22;14278;50.784;4.630;2023-06-14T05:09:14;24.60;99.90
26655;DHT22;14278;50.784;4.630;2023-06-14T05:11:40;24.00;99.90
26655;DHT22;14278;50.784;4.630;2023-06-14T05:14:12;23.90;99.90
26655;DHT22;14278;50.784;4.630;2023-06-14T05:16:38;24.60;99.90
26655;DHT22;14278;50.784;4.630;2023-06-14T05:19:05;25.20;99.90
26655;DHT22;14278;50.784;4.630;2023-06-14T05:21:31;25.50;99.90
26655;DHT22;14278;50.784;4.630;2023-06-14T05:23:59;25.10;99.90
26655;DHT22;14278;50.784;4.630;2023-06-14T05:26:25;24.60;99.90
26655;DHT22;14278;50.784;4.630;2023-06-14T05:28:55;24.00;99.90
26655;DHT22;14278;50.784;4.630;2023-06-14T05:31:22;23.60;99.90
26655;DHT22;14278;50.784;4.630;2023-06-14T05:33:49;23.20;99.90
26655;DHT22;14278;50.784;4.630;2023-06-14T05:36:15;23.00;99.90
26655;DHT22;14278;50.784;4.630;2023-06-14T05:38:41;23.20;99.90
26655;DHT22;14278;50.784;4.630;2023-06-14T05:41:07;23.50;99.90
26655;DHT22;14278;50.784;4.630;2023-06-14T05:43:33;23.70;99.90
26655;DHT22;14278;50.784;4.630;2023-06-14T05:45:59;23.80;99.90
26655;DHT22;14278;50.784;4.630;2023-06-14T05:48:25;23.30;99.90
26655;DHT22;14278;50.784;4.630;2023-06-14T05:50:50;23.10;99.90
26655;DHT22;14278;50.784;4.630;2023-06-14T05:53:16;22.70;99.90
26655;DHT22;14278;50.784;4.630;2023-06-14T05:55:43;22.60;99.90
26655;DHT22;14278;50.784;4.630;2023-06-14T05:58:09;22.60;99.90
26655;DHT22;14278;50.784;4.630;2023-06-14T06:00:36;22.70;99.90
26655;DHT22;14278;50.784;4.630;2023-06-14T06:03:02;22.90;99.90
26655;DHT22;14278;50.784;4.630;2023-06-14T06:05:27;22.80;99.90
26655;DHT22;14278;50.784;4.630;2023-06-14T06:07:54;22.90;99.90
26655;DHT22;14278;50.784;4.630;2023-06-14T06:10:20;22.70;99.90
26655;DHT22;14278;50.784;4.630;2023-06-14T06:12:46;22.70;99.90
26655;DHT22;14278;50.784;4.630;2023-06-14T06:15:12;23.10;99.90
26655;DHT22;14278;50.784;4.630;2023-06-14T06:17:39;22.40;99.90
26655;DHT22;14278;50.784;4.630;2023-06-14T06:20:06;22.50;99.90
26655;DHT22;14278;50.784;4.630;2023-06-14T06:22:34;23.30;99.90
26655;DHT22;14278;50.784;4.630;2023-06-14T06:25:00;23.40;99.90
26655;DHT22;14278;50.784;4.630;2023-06-14T06:27:25;23.10;99.90
26655;DHT22;14278;50.784;4.630;2023-06-14T06:29:51;23.30;99.90
26655;DHT22;14278;50.784;4.630;2023-06-14T06:32:19;22.90;99.90
26655;DHT22;14278;50.784;4.630;2023-06-14T06:34:44;23.20;99.90
26655;DHT22;14278;50.784;4.630;2023-06-14T06:37:10;23.30;99.90
26655;DHT22;14278;50.784;4.630;2023-06-14T06:39:36;23.70;99.90
26655;DHT22;14278;50.784;4.630;2023-06-14T06:42:02;23.20;99.90
26655;DHT22;14278;50.784;4.630;2023-06-14T06:44:29;23.70;99.90
26655;DHT22;14278;50.784;4.630;2023-06-14T06:46:54;23.00;99.90
26655;DHT22;14278;50.784;4.630;2023-06-14T06:49:20;24.20;99.90
26655;DHT22;14278;50.784;4.630;2023-06-14T06:52:06;27.20;99.90
26655;DHT22;14278;50.784;4.630;2023-06-14T06:54:32;28.90;99.90
26655;DHT22;14278;50.784;4.630;2023-06-14T06:57:00;32.10;99.90
26655;DHT22;14278;50.784;4.630;2023-06-14T06:59:27;33.20;94.10
26655;DHT22;14278;50.784;4.630;2023-06-14T07:01:52;33.40;91.40
26655;DHT22;14278;50.784;4.630;2023-06-14T07:04:18;32.70;93.10
26655;DHT22;14278;50.784;4.630;2023-06-14T07:06:45;33.90;89.40
26655;DHT22;14278;50.784;4.630;2023-06-14T07:09:12;35.50;87.50
26655;DHT22;14278;50.784;4.630;2023-06-14T07:11:39;37.90;81.30
26655;DHT22;14278;50.784;4.630;2023-06-14T07:14:06;40.50;76.00
26655;DHT22;14278;50.784;4.630;2023-06-14T07:16:32;42.70;70.40
26655;DHT22;14278;50.784;4.630;2023-06-14T07:18:58;42.50;63.90
26655;DHT22;14278;50.784;4.630;2023-06-14T07:21:24;42.20;62.10
26655;DHT22;14278;50.784;4.630;2023-06-14T07:23:54;43.50;62.00
26655;DHT22;14278;50.784;4.630;2023-06-14T07:26:20;42.40;59.10
26655;DHT22;14278;50.784;4.630;2023-06-14T07:28:47;42.80;62.40
26655;DHT22;14278;50.784;4.630;2023-06-14T07:31:16;40.90;58.10
26655;DHT22;14278;50.784;4.630;2023-06-14T07:33:45;43.50;59.30
26655;DHT22;14278;50.784;4.630;2023-06-14T07:36:11;44.50;58.70
26655;DHT22;14278;50.784;4.630;2023-06-14T07:38:36;43.50;55.00
26655;DHT22;14278;50.784;4.630;2023-06-14T07:41:02;40.30;58.30
26655;DHT22;14278;50.784;4.630;2023-06-14T07:43:28;40.80;59.80
26655;DHT22;14278;50.784;4.630;2023-06-14T07:45:55;36.30;60.30
26655;DHT22;14278;50.784;4.630;2023-06-14T07:48:22;38.20;62.50
26655;DHT22;14278;50.784;4.630;2023-06-14T07:50:48;40.90;60.60
26655;DHT22;14278;50.784;4.630;2023-06-14T07:53:14;43.90;58.50
26655;DHT22;14278;50.784;4.630;2023-06-14T07:55:40;45.00;54.40
26655;DHT22;14278;50.784;4.630;2023-06-14T07:58:08;46.20;54.40
26655;DHT22;14278;50.784;4.630;2023-06-14T08:00:34;46.50;52.50
26655;DHT22;14278;50.784;4.630;2023-06-14T08:03:00;45.40;51.70
26655;DHT22;14278;50.784;4.630;2023-06-14T08:05:26;44.40;54.60
26655;DHT22;14278;50.784;4.630;2023-06-14T08:07:52;43.00;54.30
26655;DHT22;14278;50.784;4.630;2023-06-14T08:10:19;41.80;54.90
26655;DHT22;14278;50.784;4.630;2023-06-14T08:12:45;41.00;58.30
26655;DHT22;14278;50.784;4.630;2023-06-14T08:15:11;44.10;57.20
26655;DHT22;14278;50.784;4.630;2023-06-14T08:17:37;44.90;51.80
26655;DHT22;14278;50.784;4.630;2023-06-14T08:20:04;45.80;52.40
26655;DHT22;14278;50.784;4.630;2023-06-14T08:22:31;47.40;52.30
26655;DHT22;14278;50.784;4.630;2023-06-14T08:25:00;46.90;52.00
26655;DHT22;14278;50.784;4.630;2023-06-14T08:27:26;45.50;50.60
26655;DHT22;14278;50.784;4.630;2023-06-14T08:29:52;45.80;51.90
26655;DHT22;14278;50.784;4.630;2023-06-14T08:32:18;46.30;52.20
26655;DHT22;14278;50.784;4.630;2023-06-14T08:34:45;46.10;50.60
26655;DHT22;14278;50.784;4.630;2023-06-14T08:37:11;45.90;50.50
26655;DHT22;14278;50.784;4.630;2023-06-14T08:39:37;45.30;51.10
26655;DHT22;14278;50.784;4.630;2023-06-14T08:42:03;45.20;51.50
26655;DHT22;14278;50.784;4.630;2023-06-14T08:44:30;44.90;50.90
26655;DHT22;14278;50.784;4.630;2023-06-14T08:46:56;43.20;50.80
26655;DHT22;14278;50.784;4.630;2023-06-14T08:49:25;42.40;51.30
26655;DHT22;14278;50.784;4.630;2023-06-14T08:51:57;42.30;52.20
26655;DHT22;14278;50.784;4.630;2023-06-14T08:54:25;40.90;54.90
26655;DHT22;14278;50.784;4.630;2023-06-14T08:56:53;40.00;53.60
26655;DHT22;14278;50.784;4.630;2023-06-14T08:59:24;35.60;59.90
26655;DHT22;14278;50.784;4.630;2023-06-14T09:01:51;36.80;59.40
26655;DHT22;14278;50.784;4.630;2023-06-14T09:04:18;36.10;62.90
26655;DHT22;14278;50.784;4.630;2023-06-14T09:06:45;37.40;59.20
26655;DHT22;14278;50.784;4.630;2023-06-14T09:09:11;33.90;62.50
26655;DHT22;14278;50.784;4.630;2023-06-14T09:11:42;34.70;63.10
26655;DHT22;14278;50.784;4.630;2023-06-14T09:14:08;34.70;61.70
26655;DHT22;14278;50.784;4.630;2023-06-14T09:16:35;35.50;60.20
26655;DHT22;14278;50.784;4.630;2023-06-14T09:19:00;36.30;59.70
26655;DHT22;14278;50.784;4.630;2023-06-14T09:21:26;36.60;58.60
26655;DHT22;14278;50.784;4.630;2023-06-14T09:23:53;37.80;59.10
26655;DHT22;14278;50.784;4.630;2023-06-14T09:26:19;38.20;58.00
26655;DHT22;14278;50.784;4.630;2023-06-14T09:28:47;38.20;58.00
26655;DHT22;14278;50.784;4.630;2023-06-14T09:31:14;35.20;59.70
26655;DHT22;14278;50.784;4.630;2023-06-14T09:33:49;34.00;62.60
26655;DHT22;14278;50.784;4.630;2023-06-14T09:36:17;33.10;61.50
26655;DHT22;14278;50.784;4.630;2023-06-14T09:38:54;31.20;67.20
26655;DHT22;14278;50.784;4.630;2023-06-14T09:41:20;30.30;66.30
26655;DHT22;14278;50.784;4.630;2023-06-14T09:43:47;30.00;70.50
26655;DHT22;14278;50.784;4.630;2023-06-14T09:46:13;30.60;68.60
26655;DHT22;14278;50.784;4.630;2023-06-14T09:48:40;31.20;67.00
26655;DHT22;14278;50.784;4.630;2023-06-14T09:51:10;31.60;66.40
26655;DHT22;14278;50.784;4.630;2023-06-14T09:53:41;32.90;64.00
26655;DHT22;14278;50.784;4.630;2023-06-14T09:56:09;33.90;60.90
26655;DHT22;14278;50.784;4.630;2023-06-14T09:58:37;34.10;60.50
26655;DHT22;14278;50.784;4.630;2023-06-14T10:01:07;34.50;61.20
26655;DHT22;14278;50.784;4.630;2023-06-14T10:03:34;34.50;61.30
26655;DHT22;14278;50.784;4.630;2023-06-14T10:06:03;35.20;61.40
26655;DHT22;14278;50.784;4.630;2023-06-14T10:08:32;33.70;59.50
26655;DHT22;14278;50.784;4.630;2023-06-14T10:10:58;33.20;62.50
26655;DHT22;14278;50.784;4.630;2023-06-14T10:13:26;35.30;58.00
26655;DHT22;14278;50.784;4.630;2023-06-14T10:16:10;36.60;57.30
26655;DHT22;14278;50.784;4.630;2023-06-14T10:18:51;37.40;56.60
26655;DHT22;14278;50.784;4.630;2023-06-14T10:21:40;36.80;55.70
26655;DHT22;14278;50.784;4.630;2023-06-14T10:24:10;36.40;57.50
26655;DHT22;14278;50.784;4.630;2023-06-14T10:26:53;37.40;57.40
26655;DHT22;14278;50.784;4.630;2023-06-14T10:29:19;35.30;57.80
26655;DHT22;14278;50.784;4.630;2023-06-14T10:31:50;34.50;59.40
26655;DHT22;14278;50.784;4.630;2023-06-14T10:34:23;36.30;57.50
26655;DHT22;14278;50.784;4.630;2023-06-14T10:37:12;33.00;59.40
26655;DHT22;14278;50.784;4.630;2023-06-14T10:39:43;34.40;58.30
26655;DHT22;14278;50.784;4.630;2023-06-14T10:42:13;35.40;57.10
26655;DHT22;14278;50.784;4.630;2023-06-14T10:44:52;36.00;57.80
26655;DHT22;14278;50.784;4.630;2023-06-14T10:50:05;35.70;58.60
26655;DHT22;14278;50.784;4.630;2023-06-14T10:52:34;35.70;57.60
26655;DHT22;14278;50.784;4.630;2023-06-14T10:57:32;36.80;55.80
26655;DHT22;14278;50.784;4.630;2023-06-14T10:59:59;36.60;55.30
26655;DHT22;14278;50.784;4.630;2023-06-14T11:05:15;37.50;56.10
26655;DHT22;14278;50.784;4.630;2023-06-14T11:10:40;37.20;54.30
26655;DHT22;14278;50.784;4.630;2023-06-14T11:13:09;37.00;55.60
26655;DHT22;14278;50.784;4.630;2023-06-14T11:15:36;37.90;56.50
26655;DHT22;14278;50.784;4.630;2023-06-14T11:18:06;37.80;54.70
26655;DHT22;14278;50.784;4.630;2023-06-14T11:20:34;37.30;56.00
26655;DHT22;14278;50.784;4.630;2023-06-14T11:23:01;36.20;54.20
26655;DHT22;14278;50.784;4.630;2023-06-14T11:25:28;35.80;56.90
26655;DHT22;14278;50.784;4.630;2023-06-14T11:27:54;34.80;57.30
26655;DHT22;14278;50.784;4.630;2023-06-14T11:30:21;35.10;57.00
26655;DHT22;14278;50.784;4.630;2023-06-14T11:32:48;34.80;56.20
26655;DHT22;14278;50.784;4.630;2023-06-14T11:35:14;35.80;56.50
26655;DHT22;14278;50.784;4.630;2023-06-14T11:37:41;36.00;55.10
26655;DHT22;14278;50.784;4.630;2023-06-14T11:40:11;35.00;54.60
26655;DHT22;14278;50.784;4.630;2023-06-14T11:42:40;33.50;57.10
26655;DHT22;14278;50.784;4.630;2023-06-14T11:45:10;34.30;58.40
26655;DHT22;14278;50.784;4.630;2023-06-14T11:47:40;32.90;59.60
26655;DHT22;14278;50.784;4.630;2023-06-14T11:50:12;34.40;59.40
26655;DHT22;14278;50.784;4.630;2023-06-14T11:52:38;34.40;57.00
26655;DHT22;14278;50.784;4.630;2023-06-14T11:55:06;33.90;58.40
26655;DHT22;14278;50.784;4.630;2023-06-14T11:57:36;32.70;58.90
26655;DHT22;14278;50.784;4.630;2023-06-14T12:00:06;31.90;59.40
26655;DHT22;14278;50.784;4.630;2023-06-14T12:02:40;30.50;61.30
26655;DHT22;14278;50.784;4.630;2023-06-14T12:05:07;29.90;64.10
26655;DHT22;14278;50.784;4.630;2023-06-14T12:07:38;30.10;65.30
26655;DHT22;14278;50.784;4.630;2023-06-14T12:10:10;30.50;66.00
26655;DHT22;14278;50.784;4.630;2023-06-14T12:12:38;30.60;65.40
26655;DHT22;14278;50.784;4.630;2023-06-14T12:15:05;30.50;65.00
26655;DHT22;14278;50.784;4.630;2023-06-14T12:17:37;30.30;65.80
26655;DHT22;14278;50.784;4.630;2023-06-14T12:20:12;30.40;65.30
26655;DHT22;14278;50.784;4.630;2023-06-14T12:22:58;30.30;62.10
26655;DHT22;14278;50.784;4.630;2023-06-14T12:25:33;28.90;65.60
26655;DHT22;14278;50.784;4.630;2023-06-14T12:28:07;29.40;66.60
26655;DHT22;14278;50.784;4.630;2023-06-14T12:30:35;28.80;65.70
26655;DHT22;14278;50.784;4.630;2023-06-14T12:33:05;29.10;67.40
26655;DHT22;14278;50.784;4.630;2023-06-14T12:35:31;29.20;67.10
26655;DHT22;14278;50.784;4.630;2023-06-14T12:37:57;29.80;68.40
26655;DHT22;14278;50.784;4.630;2023-06-14T12:40:23;29.60;64.70
26655;DHT22;14278;50.784;4.630;2023-06-14T12:42:49;29.40;66.20
26655;DHT22;14278;50.784;4.630;2023-06-14T12:45:15;29.50;67.20
26655;DHT22;14278;50.784;4.630;2023-06-14T12:47:41;29.50;64.70
26655;DHT22;14278;50.784;4.630;2023-06-14T12:50:08;29.60;64.80
26655;DHT22;14278;50.784;4.630;2023-06-14T12:52:34;29.60;67.60
26655;DHT22;14278;50.784;4.630;2023-06-14T12:55:04;29.20;65.60
26655;DHT22;14278;50.784;4.630;2023-06-14T12:57:30;29.20;66.20
26655;DHT22;14278;50.784;4.630;2023-06-14T12:59:55;29.40;67.20
26655;DHT22;14278;50.784;4.630;2023-06-14T13:02:21;29.70;65.50
26655;DHT22;14278;50.784;4.630;2023-06-14T13:04:49;29.30;63.70
26655;DHT22;14278;50.784;4.630;2023-06-14T13:07:15;28.60;65.40
26655;DHT22;14278;50.784;4.630;2023-06-14T13:09:41;29.10;65.60
26655;DHT22;14278;50.784;4.630;2023-06-14T13:12:10;29.00;64.50
26655;DHT22;14278;50.784;4.630;2023-06-14T13:14:36;29.10;66.30
26655;DHT22;14278;50.784;4.630;2023-06-14T13:17:03;29.50;66.20
26655;DHT22;14278;50.784;4.630;2023-06-14T13:19:28;29.40;66.40
26655;DHT22;14278;50.784;4.630;2023-06-14T13:21:55;29.60;68.70
26655;DHT22;14278;50.784;4.630;2023-06-14T13:24:21;29.90;63.60
26655;DHT22;14278;50.784;4.630;2023-06-14T13:26:47;28.70;63.00
26655;DHT22;14278;50.784;4.630;2023-06-14T13:29:13;28.80;65.40
26655;DHT22;14278;50.784;4.630;2023-06-14T13:31:39;28.70;64.50
26655;DHT22;14278;50.784;4.630;2023-06-14T13:34:05;28.50;67.20
26655;DHT22;14278;50.784;4.630;2023-06-14T13:36:36;28.90;65.90
26655;DHT22;14278;50.784;4.630;2023-06-14T13:39:05;29.20;64.60
26655;DHT22;14278;50.784;4.630;2023-06-14T13:41:31;29.10;64.10
26655;DHT22;14278;50.784;4.630;2023-06-14T13:44:00;28.80;66.30
26655;DHT22;14278;50.784;4.630;2023-06-14T13:46:26;28.10;67.20
26655;DHT22;14278;50.784;4.630;2023-06-14T13:49:07;28.60;65.20
26655;DHT22;14278;50.784;4.630;2023-06-14T13:51:38;28.70;66.30
26655;DHT22;14278;50.784;4.630;2023-06-14T13:54:07;28.10;65.80
26655;DHT22;14278;50.784;4.630;2023-06-14T13:56:33;28.30;63.90
26655;DHT22;14278;50.784;4.630;2023-06-14T13:59:01;27.70;63.70
26655;DHT22;14278;50.784;4.630;2023-06-14T14:01:27;28.10;65.40
26655;DHT22;14278;50.784;4.630;2023-06-14T14:03:54;28.40;62.90
26655;DHT22;14278;50.784;4.630;2023-06-14T14:09:44;28.40;63.30
26655;DHT22;14278;50.784;4.630;2023-06-14T14:12:10;28.00;64.00
26655;DHT22;14278;50.784;4.630;2023-06-14T14:14:38;27.10;64.60
26655;DHT22;14278;50.784;4.630;2023-06-14T14:17:05;27.30;66.60
26655;DHT22;14278;50.784;4.630;2023-06-14T14:19:32;27.40;67.00
26655;DHT22;14278;50.784;4.630;2023-06-14T14:21:58;27.80;63.60
26655;DHT22;14278;50.784;4.630;2023-06-14T14:24:24;27.70;67.00
26655;DHT22;14278;50.784;4.630;2023-06-14T14:26:50;27.50;66.60
26655;DHT22;14278;50.784;4.630;2023-06-14T14:29:19;27.20;63.10
26655;DHT22;14278;50.784;4.630;2023-06-14T14:31:45;27.10;64.60
26655;DHT22;14278;50.784;4.630;2023-06-14T14:34:11;27.10;62.50
26655;DHT22;14278;50.784;4.630;2023-06-14T14:36:36;27.40;65.20
26655;DHT22;14278;50.784;4.630;2023-06-14T14:39:04;27.70;67.30
26655;DHT22;14278;50.784;4.630;2023-06-14T14:41:30;28.20;62.60
26655;DHT22;14278;50.784;4.630;2023-06-14T14:43:56;27.40;65.50
26655;DHT22;14278;50.784;4.630;2023-06-14T14:46:21;27.60;64.80
26655;DHT22;14278;50.784;4.630;2023-06-14T14:48:47;27.80;63.70
26655;DHT22;14278;50.784;4.630;2023-06-14T14:51:13;27.90;62.90
26655;DHT22;14278;50.784;4.630;2023-06-14T14:53:39;27.90;62.80
26655;DHT22;14278;50.784;4.630;2023-06-14T14:56:04;27.60;64.30
26655;DHT22;14278;50.784;4.630;2023-06-14T14:58:30;27.10;65.40
26655;DHT22;14278;50.784;4.630;2023-06-14T15:00:56;27.10;66.00
26655;DHT22;14278;50.784;4.630;2023-06-14T15:03:22;27.50;65.90
26655;DHT22;14278;50.784;4.630;2023-06-14T15:05:48;27.80;64.90
26655;DHT22;14278;50.784;4.630;2023-06-14T15:08:21;27.90;65.50
26655;DHT22;14278;50.784;4.630;2023-06-14T15:10:47;28.00;66.60
26655;DHT22;14278;50.784;4.630;2023-06-14T15:13:14;27.90;65.80
26655;DHT22;14278;50.784;4.630;2023-06-14T15:15:39;28.10;66.20
26655;DHT22;14278;50.784;4.630;2023-06-14T15:18:05;28.00;64.90
26655;DHT22;14278;50.784;4.630;2023-06-14T15:20:31;28.10;66.40
26655;DHT22;14278;50.784;4.630;2023-06-14T15:22:57;27.60;64.50
26655;DHT22;14278;50.784;4.630;2023-06-14T15:25:28;27.60;65.30
26655;DHT22;14278;50.784;4.630;2023-06-14T15:27:55;27.50;64.30
26655;DHT22;14278;50.784;4.630;2023-06-14T15:30:22;27.20;64.90
26655;DHT22;14278;50.784;4.630;2023-06-14T15:32:48;27.70;67.00
26655;DHT22;14278;50.784;4.630;2023-06-14T15:35:16;27.40;64.60
26655;DHT22;14278;50.784;4.630;2023-06-14T15:37:42;27.50;65.40
26655;DHT22;14278;50.784;4.630;2023-06-14T15:40:08;27.80;64.60
26655;DHT22;14278;50.784;4.630;2023-06-14T15:42:34;28.00;65.00
26655;DHT22;14278;50.784;4.630;2023-06-14T15:45:00;27.80;64.20
26655;DHT22;14278;50.784;4.630;2023-06-14T15:47:26;27.30;63.70